createdAt,value
2022-08-09T00:01:52.806Z,100.00
2022-08-09T00:04:34.235Z,100.00
2022-08-09T00:07:07.842Z,100.00
2022-08-09T00:09:39.526Z,100.00
2022-08-09T00:12:22.434Z,100.00
2022-08-09T00:14:51.185Z,100.00
2022-08-09T00:18:04.608Z,100.00
2022-08-09T00:20:14.188Z,100.00
2022-08-09T00:22:44.890Z,100.00
2022-08-09T00:25:15.552Z,100.00
2022-08-09T00:27:53.286Z,100.00
2022-08-09T00:30:25.158Z,100.00
2022-08-09T00:32:54.311Z,100.00
2022-08-09T00:35:24.060Z,100.00
2022-08-09T00:37:52.360Z,100.00
2022-08-09T00:40:22.001Z,100.00
2022-08-09T00:44:15.132Z,100.00
2022-08-09T00:45:53.820Z,100.00
2022-08-09T00:48:22.693Z,100.00
2022-08-09T00:50:52.288Z,100.00
2022-08-09T00:53:24.046Z,100.00
2022-08-09T00:56:04.907Z,100.00
2022-08-09T00:58:39.138Z,100.00
2022-08-09T01:01:15.850Z,100.00
2022-08-09T01:03:52.450Z,100.00
2022-08-09T01:06:53.269Z,100.00
2022-08-09T01:09:26.356Z,100.00
2022-08-09T01:12:09.524Z,100.00
2022-08-09T01:14:48.035Z,100.00
2022-08-09T01:17:25.449Z,100.00
2022-08-09T01:20:03.374Z,100.00
2022-08-09T01:22:54.811Z,100.00
2022-08-09T01:25:33.186Z,100.00
2022-08-09T01:28:12.406Z,100.00
2022-08-09T01:30:51.544Z,100.00
2022-08-09T01:33:29.925Z,100.00
2022-08-09T01:36:03.223Z,100.00
2022-08-09T01:38:36.386Z,100.00
2022-08-09T01:41:10.193Z,100.00
2022-08-09T01:43:51.636Z,100.00
2022-08-09T01:46:25.036Z,100.00
2022-08-09T01:49:00.263Z,100.00
2022-08-09T01:51:42.702Z,100.00
2022-08-09T01:54:12.803Z,100.00
2022-08-09T01:56:43.195Z,100.00
2022-08-09T01:59:19.922Z,100.00
2022-08-09T02:01:59.597Z,100.00
2022-08-09T02:04:30.082Z,100.00
2022-08-09T02:08:40.560Z,100.00
2022-08-09T02:10:18.776Z,100.00
2022-08-09T02:12:58.966Z,100.00
2022-08-09T02:15:36.246Z,100.00
2022-08-09T02:18:21.220Z,100.00
2022-08-09T02:21:00.876Z,100.00
2022-08-09T02:23:32.104Z,100.00
2022-08-09T02:26:26.796Z,100.00
2022-08-09T02:29:00.090Z,100.00
2022-08-09T02:31:34.057Z,100.00
2022-08-09T02:34:13.200Z,100.00
2022-08-09T02:36:43.573Z,100.00
2022-08-09T02:39:20.322Z,100.00
2022-08-09T02:42:08.297Z,100.00
2022-08-09T02:44:38.463Z,100.00
2022-08-09T02:47:11.359Z,100.00
2022-08-09T02:49:55.489Z,100.00
2022-08-09T02:52:35.382Z,100.00
2022-08-09T02:55:20.002Z,100.00
2022-08-09T02:58:32.711Z,100.00
2022-08-09T03:00:57.963Z,100.00
2022-08-09T03:04:12.338Z,100.00
2022-08-09T03:06:18.886Z,100.00
2022-08-09T03:08:50.958Z,100.00
2022-08-09T03:11:30.210Z,100.00
2022-08-09T03:14:12.758Z,100.00
2022-08-09T03:16:45.074Z,100.00
2022-08-09T03:19:52.725Z,100.00
2022-08-09T03:22:12.383Z,100.00
2022-08-09T03:25:06.427Z,100.00
2022-08-09T03:27:44.544Z,100.00
2022-08-09T03:30:28.116Z,100.00
2022-08-09T03:33:12.761Z,100.00
2022-08-09T03:36:12.975Z,100.00
2022-08-09T03:38:35.797Z,100.00
2022-08-09T03:41:06.140Z,100.00
2022-08-09T03:43:34.717Z,100.00
2022-08-09T03:46:27.010Z,100.00
2022-08-09T03:48:56.495Z,100.00
2022-08-09T03:51:56.442Z,100.00
2022-08-09T03:54:16.144Z,100.00
2022-08-09T03:56:46.607Z,100.00
2022-08-09T03:59:20.800Z,100.00
2022-08-09T04:01:50.618Z,100.00
2022-08-09T04:04:19.599Z,100.00
2022-08-09T04:06:50.021Z,100.00
2022-08-09T04:09:44.375Z,100.00
2022-08-09T04:12:31.048Z,100.00
2022-08-09T04:15:02.457Z,100.00
2022-08-09T04:17:42.367Z,100.00
2022-08-09T04:20:13.631Z,100.00
2022-08-09T04:22:44.809Z,100.00
2022-08-09T04:25:13.780Z,100.00
2022-08-09T04:27:46.709Z,100.00
2022-08-09T04:30:20.819Z,100.00
2022-08-09T04:32:52.063Z,100.00
2022-08-09T04:35:21.858Z,100.00
2022-08-09T04:37:54.481Z,100.00
2022-08-09T04:40:35.998Z,100.00
2022-08-09T04:43:05.936Z,100.00
2022-08-09T04:45:36.178Z,100.00
2022-08-09T04:48:23.816Z,100.00
2022-08-09T04:51:01.791Z,100.00
2022-08-09T04:53:31.631Z,100.00
2022-08-09T04:56:00.478Z,100.00
2022-08-09T04:58:29.810Z,100.00
2022-08-09T05:01:00.485Z,100.00
2022-08-09T05:03:43.049Z,100.00
2022-08-09T05:06:21.782Z,100.00
2022-08-09T05:09:00.338Z,100.00
2022-08-09T05:11:32.133Z,100.00
2022-08-09T05:14:06.024Z,100.00
2022-08-09T05:16:58.107Z,100.00
2022-08-09T05:19:26.215Z,100.00
2022-08-09T05:22:00.311Z,100.00
2022-08-09T05:24:29.894Z,100.00
2022-08-09T05:26:58.483Z,100.00
2022-08-09T05:29:31.292Z,100.00
2022-08-09T05:32:01.211Z,100.00
2022-08-09T05:34:31.605Z,100.00
2022-08-09T05:37:05.335Z,100.00
2022-08-09T05:39:43.736Z,100.00
2022-08-09T05:42:17.983Z,100.00
2022-08-09T05:44:57.319Z,100.00
2022-08-09T05:50:25.040Z,93.43
2022-08-09T05:52:53.482Z,91.95
2022-08-09T05:55:24.472Z,92.87
2022-08-09T05:57:56.515Z,83.11
2022-08-09T06:00:29.177Z,84.60
2022-08-09T06:02:58.618Z,85.02
2022-08-09T06:05:30.826Z,80.06
2022-08-09T06:08:19.743Z,76.95
2022-08-09T06:10:56.233Z,72.46
2022-08-09T06:13:28.523Z,73.68
2022-08-09T06:16:04.666Z,66.28
2022-08-09T06:18:33.814Z,63.57
2022-08-09T06:21:04.348Z,65.14
2022-08-09T06:23:57.433Z,65.36
2022-08-09T06:26:28.243Z,65.69
2022-08-09T06:28:59.438Z,65.20
2022-08-09T06:31:31.321Z,63.32
2022-08-09T06:34:00.143Z,61.60
2022-08-09T06:36:29.765Z,59.71
2022-08-09T06:38:58.787Z,58.97
2022-08-09T06:41:58.847Z,58.17
2022-08-09T06:44:21.279Z,55.75
2022-08-09T06:46:55.471Z,53.98
2022-08-09T06:49:44.487Z,50.64
2022-08-09T06:52:15.969Z,52.73
2022-08-09T06:54:44.607Z,51.17
2022-08-09T06:57:14.274Z,49.54
2022-08-09T07:00:49.544Z,51.22
2022-08-09T07:02:32.083Z,49.86
2022-08-09T07:05:00.875Z,47.72
2022-08-09T07:07:59.681Z,46.82
2022-08-09T07:10:29.722Z,47.07
2022-08-09T07:13:18.799Z,46.88
2022-08-09T07:15:53.920Z,44.50
2022-08-09T07:18:38.816Z,44.31
2022-08-09T07:21:07.801Z,43.54
2022-08-09T07:23:36.500Z,43.02
2022-08-09T07:26:24.880Z,42.29
2022-08-09T07:29:01.405Z,41.79
2022-08-09T07:31:38.610Z,42.32
2022-08-09T07:34:19.596Z,41.59
2022-08-09T07:36:50.186Z,41.07
2022-08-09T07:39:40.269Z,41.49
2022-08-09T07:42:09.942Z,42.26
2022-08-09T07:44:52.390Z,41.54
2022-08-09T07:47:23.473Z,40.23
2022-08-09T07:50:05.435Z,40.13
2022-08-09T07:52:38.362Z,40.53
2022-08-09T07:55:08.860Z,39.87
2022-08-09T07:57:46.864Z,38.70
2022-08-09T08:00:20.316Z,40.37
2022-08-09T08:03:04.613Z,39.80
2022-08-09T08:05:53.425Z,39.68
2022-08-09T08:09:00.804Z,38.76
2022-08-09T08:12:11.149Z,38.93
2022-08-09T08:13:58.238Z,37.25
2022-08-09T08:16:31.997Z,37.64
2022-08-09T08:19:04.561Z,37.16
2022-08-09T08:21:33.127Z,37.54
2022-08-09T08:24:12.142Z,36.90
2022-08-09T08:26:55.909Z,38.05
2022-08-09T08:29:28.231Z,37.44
2022-08-09T08:32:04.116Z,36.13
2022-08-09T08:34:36.345Z,36.30
2022-08-09T08:37:05.317Z,36.31
2022-08-09T08:39:39.759Z,36.55
2022-08-09T08:42:12.900Z,37.36
2022-08-09T08:44:43.457Z,35.91
2022-08-09T08:47:14.901Z,35.56
2022-08-09T08:49:48.272Z,34.96
2022-08-09T08:55:07.523Z,36.23
2022-08-09T08:57:37.473Z,36.90
2022-08-09T09:00:16.951Z,35.13
2022-08-09T09:02:53.663Z,34.62
2022-08-09T09:05:32.937Z,33.99
2022-08-09T09:08:29.951Z,34.32
2022-08-09T09:11:03.395Z,33.90
2022-08-09T09:13:41.852Z,34.26
2022-08-09T09:16:30.981Z,32.77
2022-08-09T09:21:58.803Z,33.13
2022-08-09T09:24:29.963Z,32.58
2022-08-09T09:26:58.923Z,31.68
2022-08-09T09:30:05.374Z,32.26
2022-08-09T09:32:34.549Z,31.91
2022-08-09T09:35:09.288Z,30.15
2022-08-09T09:37:40.324Z,30.27
2022-08-09T09:40:11.829Z,29.37
2022-08-09T09:42:46.083Z,29.00
2022-08-09T09:45:26.709Z,28.46
2022-08-09T09:47:58.538Z,28.61
2022-08-09T09:50:49.649Z,27.93
2022-08-09T09:53:34.325Z,27.22
2022-08-09T09:56:30.851Z,25.86
2022-08-09T09:58:58.980Z,25.21
2022-08-09T10:01:36.712Z,25.60
2022-08-09T10:04:09.439Z,24.67
2022-08-09T10:06:46.762Z,25.89
2022-08-09T10:09:22.712Z,24.46
2022-08-09T10:12:07.772Z,25.69
2022-08-09T10:14:48.266Z,24.90
2022-08-09T10:17:54.942Z,25.56
2022-08-09T10:20:15.074Z,25.39
2022-08-09T10:22:45.427Z,24.93
2022-08-09T10:25:15.357Z,24.93
2022-08-09T10:27:56.792Z,24.78
2022-08-09T10:32:03.970Z,24.58
2022-08-09T10:34:04.619Z,24.15
2022-08-09T10:36:05.160Z,23.79
2022-08-09T10:38:57.037Z,23.45
2022-08-09T10:41:23.218Z,23.64
2022-08-09T10:43:59.786Z,24.30
2022-08-09T10:47:03.955Z,24.43
2022-08-09T10:49:57.509Z,23.92
2022-08-09T10:52:49.634Z,24.07
2022-08-09T10:55:25.330Z,24.38
2022-08-09T10:57:55.991Z,23.58
2022-08-09T11:00:51.109Z,23.46
2022-08-09T11:03:46.945Z,23.22
2022-08-09T11:06:21.124Z,22.65
2022-08-09T11:08:53.271Z,22.85
2022-08-09T11:11:24.233Z,23.32
2022-08-09T11:14:28.025Z,23.22
2022-08-09T11:16:58.057Z,23.02
2022-08-09T11:20:07.930Z,22.98
2022-08-09T11:23:02.805Z,20.98
2022-08-09T11:25:47.296Z,21.20
2022-08-09T11:28:54.707Z,20.87
2022-08-09T11:31:49.602Z,21.53
2022-08-09T11:34:29.344Z,22.33
2022-08-09T11:36:57.829Z,21.85
2022-08-09T11:39:38.093Z,24.54
2022-08-09T11:42:14.740Z,23.05
2022-08-09T11:44:48.481Z,22.40
2022-08-09T11:47:18.006Z,21.53
2022-08-09T11:50:55.203Z,21.51
2022-08-09T11:54:00.643Z,20.44
2022-08-09T11:56:41.443Z,19.17
2022-08-09T11:59:12.309Z,19.28
2022-08-09T12:02:17.127Z,19.70
2022-08-09T12:04:37.215Z,20.35
2022-08-09T12:07:07.957Z,19.27
2022-08-09T12:09:37.485Z,19.92
2022-08-09T12:12:12.830Z,19.77
2022-08-09T12:15:07.186Z,19.16
2022-08-09T12:17:44.782Z,19.37
2022-08-09T12:20:21.965Z,19.44
2022-08-09T12:22:52.711Z,20.48
2022-08-09T12:25:36.704Z,18.57
2022-08-09T12:29:00.252Z,19.18
2022-08-09T12:30:59.981Z,19.34
2022-08-09T12:33:50.957Z,19.20
2022-08-09T12:36:31.701Z,19.16
2022-08-09T12:39:01.675Z,18.92
2022-08-09T12:41:38.899Z,17.94
2022-08-09T12:44:10.217Z,19.47
2022-08-09T12:46:43.357Z,19.32
2022-08-09T12:49:20.933Z,18.35
2022-08-09T12:52:01.990Z,18.22
2022-08-09T12:54:32.948Z,18.45
2022-08-09T12:57:01.322Z,18.79
2022-08-09T12:59:40.106Z,17.87
2022-08-09T13:02:24.542Z,19.08
2022-08-09T13:05:02.990Z,19.12
2022-08-09T13:07:50.440Z,17.61
2022-08-09T13:10:20.577Z,18.04
2022-08-09T13:13:10.802Z,18.68
2022-08-09T13:15:37.925Z,18.84
2022-08-09T13:18:17.313Z,17.69
2022-08-09T13:21:04.334Z,17.52
2022-08-09T13:24:16.966Z,18.23
2022-08-09T13:26:41.805Z,18.35
2022-08-09T13:29:13.190Z,18.10
2022-08-09T13:32:16.348Z,18.14
2022-08-09T13:34:46.933Z,18.07
2022-08-09T13:37:50.889Z,17.49
2022-08-09T13:41:52.252Z,17.75
2022-08-09T13:42:56.968Z,18.30
2022-08-09T13:45:32.590Z,18.30
2022-08-09T13:48:14.458Z,18.42
2022-08-09T13:50:43.480Z,19.13
2022-08-09T13:53:13.459Z,19.03
2022-08-09T13:55:44.899Z,18.56
2022-08-09T13:58:16.820Z,17.31
2022-08-09T14:00:50.603Z,17.58
2022-08-09T14:04:02.404Z,18.87
2022-08-09T14:06:19.380Z,18.71
2022-08-09T14:08:56.221Z,19.19
2022-08-09T14:11:26.565Z,19.44
2022-08-09T14:14:21.957Z,20.48
2022-08-09T14:16:43.264Z,19.65
2022-08-09T14:19:11.565Z,19.10
2022-08-09T14:21:40.078Z,18.74
2022-08-09T14:24:21.921Z,18.43
2022-08-09T14:27:00.306Z,18.41
2022-08-09T14:30:35.970Z,18.66
2022-08-09T14:32:19.675Z,19.08
2022-08-09T14:34:57.045Z,18.95
2022-08-09T14:37:28.108Z,19.22
2022-08-09T14:39:58.478Z,19.29
2022-08-09T14:42:30.700Z,19.53
2022-08-09T14:46:55.436Z,20.07
2022-08-09T14:47:57.166Z,21.22
2022-08-09T14:50:30.675Z,21.81
2022-08-09T14:52:59.955Z,22.62
2022-08-09T14:55:32.157Z,22.86
2022-08-09T14:58:03.538Z,22.92
2022-08-09T15:00:36.115Z,22.88
2022-08-09T15:03:06.787Z,23.70
2022-08-09T15:05:36.699Z,23.48
2022-08-09T15:08:06.629Z,23.09
2022-08-09T15:10:40.183Z,24.22
2022-08-09T15:13:08.658Z,24.24
2022-08-09T15:15:39.296Z,25.24
2022-08-09T15:18:12.354Z,25.62
2022-08-09T15:22:00.756Z,26.06
2022-08-09T15:24:01.003Z,26.79
2022-08-09T15:26:30.767Z,26.58
2022-08-09T15:29:04.060Z,26.46
2022-08-09T15:31:40.950Z,26.26
2022-08-09T15:34:33.611Z,25.29
2022-08-09T15:37:01.016Z,25.25
2022-08-09T15:39:34.812Z,23.98
2022-08-09T15:42:20.042Z,24.41
2022-08-09T15:44:50.526Z,24.54
2022-08-09T15:47:22.324Z,26.69
2022-08-09T15:50:04.190Z,26.06
2022-08-09T15:52:35.547Z,26.15
2022-08-09T15:55:05.430Z,26.17
2022-08-09T15:57:44.512Z,25.59
2022-08-09T16:00:25.891Z,25.53
2022-08-09T16:02:57.167Z,25.33
2022-08-09T16:05:47.338Z,24.54
2022-08-09T16:08:29.749Z,24.44
2022-08-09T16:11:01.715Z,24.83
2022-08-09T16:14:03.782Z,25.12
2022-08-09T16:16:26.162Z,26.24
2022-08-09T16:18:56.808Z,26.16
2022-08-09T16:21:26.061Z,25.49
2022-08-09T16:23:58.837Z,25.50
2022-08-09T16:26:33.552Z,25.58
2022-08-09T16:29:06.142Z,25.13
2022-08-09T16:32:20.065Z,25.44
2022-08-09T16:34:55.352Z,24.70
2022-08-09T16:37:18.813Z,24.82
2022-08-09T16:39:54.667Z,24.02
2022-08-09T16:42:33.451Z,24.72
2022-08-09T16:45:03.419Z,24.23
2022-08-09T16:48:40.064Z,24.38
2022-08-09T16:50:29.627Z,24.45
2022-08-09T16:53:01.620Z,24.46
2022-08-09T16:55:31.567Z,24.47
2022-08-09T16:58:21.119Z,25.12
2022-08-09T17:00:51.608Z,25.25
2022-08-09T17:03:21.322Z,25.80
2022-08-09T17:06:09.328Z,25.58
2022-08-09T17:09:01.662Z,25.89
2022-08-09T17:11:40.542Z,25.47
2022-08-09T17:14:15.909Z,25.31
2022-08-09T17:16:59.732Z,25.97
2022-08-09T17:19:47.329Z,27.10
2022-08-09T17:22:24.063Z,26.62
2022-08-09T17:25:02.662Z,27.38
2022-08-09T17:27:31.527Z,27.69
2022-08-09T17:30:00.003Z,27.44
2022-08-09T17:32:37.396Z,27.90
2022-08-09T17:35:12.201Z,27.53
2022-08-09T17:38:12.111Z,28.36
2022-08-09T17:40:32.014Z,28.04
2022-08-09T17:43:32.279Z,28.48
2022-08-09T17:46:03.142Z,28.33
2022-08-09T17:48:34.939Z,28.56
2022-08-09T17:51:09.591Z,28.82
2022-08-09T17:53:52.020Z,29.05
2022-08-09T17:56:27.870Z,30.07
2022-08-09T17:59:01.201Z,29.36
2022-08-09T18:02:03.876Z,30.72
2022-08-09T18:04:22.196Z,30.77
2022-08-09T18:06:54.972Z,30.55
2022-08-09T18:09:35.745Z,30.89
2022-08-09T18:12:17.478Z,31.27
2022-08-09T18:14:54.445Z,31.62
2022-08-09T18:17:27.061Z,31.79
2022-08-09T18:20:59.656Z,32.24
2022-08-09T18:23:05.832Z,31.94
2022-08-09T18:25:50.736Z,32.46
2022-08-09T18:30:38.840Z,32.57
2022-08-09T18:31:10.974Z,32.59
2022-08-09T18:33:40.163Z,32.63
2022-08-09T18:36:14.296Z,32.74
2022-08-09T18:39:00.950Z,33.00
2022-08-09T18:41:34.294Z,33.35
2022-08-09T18:44:13.276Z,33.66
2022-08-09T18:46:51.368Z,34.17
2022-08-09T18:49:31.868Z,33.78
2022-08-09T18:52:02.417Z,33.66
2022-08-09T18:54:30.987Z,34.41
2022-08-09T18:57:06.310Z,34.33
2022-08-09T18:59:48.550Z,34.55
2022-08-09T19:02:19.095Z,35.15
2022-08-09T19:05:15.325Z,35.09
2022-08-09T19:07:38.004Z,35.29
2022-08-09T19:10:16.708Z,35.43
2022-08-09T19:12:55.545Z,35.30
2022-08-09T19:15:36.038Z,35.74
2022-08-09T19:18:05.657Z,36.00
2022-08-09T19:20:38.903Z,36.12
2022-08-09T19:23:16.504Z,36.07
2022-08-09T19:26:02.183Z,36.83
2022-08-09T19:28:34.019Z,36.89
2022-08-09T19:31:07.848Z,36.64
2022-08-09T19:33:36.903Z,36.97
2022-08-09T19:36:11.686Z,36.92
2022-08-09T19:38:43.106Z,36.58
2022-08-09T19:41:33.054Z,36.89
2022-08-09T19:44:04.312Z,37.02
2022-08-09T19:46:35.150Z,37.31
2022-08-09T19:50:07.438Z,37.25
2022-08-09T19:51:55.740Z,36.79
2022-08-09T19:54:29.168Z,37.48
2022-08-09T19:56:58.658Z,37.90
2022-08-09T19:59:58.999Z,37.79
2022-08-09T20:04:12.175Z,38.31
2022-08-09T20:05:11.717Z,38.65
2022-08-09T20:07:59.470Z,38.69
2022-08-09T20:10:34.391Z,39.32
2022-08-09T20:13:06.292Z,39.40
2022-08-09T20:16:34.295Z,39.37
2022-08-09T20:18:27.557Z,39.51
2022-08-09T20:20:56.730Z,39.05
2022-08-09T20:23:39.411Z,38.84
2022-08-09T20:26:13.162Z,39.50
2022-08-09T20:28:48.494Z,39.77
2022-08-09T20:31:18.578Z,40.15
2022-08-09T20:33:52.501Z,40.02
2022-08-09T20:36:30.354Z,40.43
2022-08-09T20:39:28.853Z,41.13
2022-08-09T20:41:49.921Z,39.98
2022-08-09T20:44:26.356Z,40.30
2022-08-09T20:46:54.873Z,40.85
2022-08-09T20:49:24.163Z,40.89
2022-08-09T20:51:56.966Z,41.46
2022-08-09T20:54:28.886Z,41.56
2022-08-09T20:56:58.783Z,42.21
2022-08-09T21:00:22.447Z,42.52
2022-08-09T21:02:18.671Z,43.59
2022-08-09T21:05:50.980Z,44.41
2022-08-09T21:07:40.716Z,44.49
2022-08-09T21:10:12.663Z,44.57
2022-08-09T21:15:34.142Z,43.78
2022-08-09T21:18:23.188Z,43.79
2022-08-09T21:20:54.195Z,45.30
2022-08-09T21:23:26.540Z,47.32
2022-08-09T21:26:11.524Z,47.98
2022-08-09T21:28:55.700Z,48.38
2022-08-09T21:31:24.461Z,48.91
2022-08-09T21:34:13.078Z,50.29
2022-08-09T21:36:55.426Z,50.15
2022-08-09T21:39:27.889Z,50.77
2022-08-09T21:42:10.921Z,50.75
2022-08-09T21:44:42.873Z,52.84
2022-08-09T21:47:17.666Z,52.33
2022-08-09T21:49:48.217Z,52.08
2022-08-09T21:52:20.322Z,53.23
2022-08-09T21:54:59.582Z,53.48
2022-08-09T21:57:38.997Z,53.44
2022-08-09T22:00:25.968Z,57.74
2022-08-09T22:02:58.352Z,55.60
2022-08-09T22:05:35.681Z,55.62
2022-08-09T22:08:07.116Z,58.32
2022-08-09T22:11:04.794Z,56.51
2022-08-09T22:13:34.806Z,57.96
2022-08-09T22:16:07.148Z,59.18
2022-08-09T22:18:37.329Z,60.36
2022-08-09T22:21:09.456Z,61.16
2022-08-09T22:23:59.236Z,60.69
2022-08-09T22:26:34.743Z,62.06
2022-08-09T22:29:08.705Z,64.35
2022-08-09T22:31:50.215Z,63.43
2022-08-09T22:34:26.263Z,64.75
2022-08-09T22:36:55.239Z,65.97
2022-08-09T22:39:56.190Z,65.80
2022-08-09T22:42:20.951Z,63.03
2022-08-09T22:48:06.081Z,60.03
2022-08-09T22:48:18.806Z,60.98
2022-08-09T22:50:30.189Z,64.58
2022-08-09T22:52:58.816Z,65.66
2022-08-09T22:55:33.690Z,64.87
2022-08-09T22:58:30.941Z,66.98
2022-08-09T23:01:03.169Z,67.37
2022-08-09T23:04:06.041Z,69.04
2022-08-09T23:06:34.838Z,69.52
2022-08-09T23:09:05.495Z,68.07
2022-08-09T23:11:34.049Z,68.57
2022-08-09T23:14:03.436Z,70.15
2022-08-09T23:16:32.138Z,67.34
2022-08-09T23:19:01.952Z,69.01
2022-08-09T23:21:34.434Z,66.72
2022-08-09T23:24:05.957Z,69.89
2022-08-09T23:26:35.964Z,70.23
2022-08-09T23:29:04.822Z,70.82
2022-08-09T23:31:33.052Z,74.62
2022-08-09T23:34:03.799Z,76.51
2022-08-09T23:36:32.603Z,74.28
2022-08-09T23:39:00.966Z,76.10
2022-08-09T23:41:29.809Z,75.36
2022-08-09T23:44:02.409Z,77.57
2022-08-09T23:46:31.206Z,81.31
2022-08-09T23:48:59.876Z,76.16
2022-08-09T23:51:29.848Z,78.63
2022-08-09T23:54:02.146Z,78.95
2022-08-09T23:56:52.775Z,80.37
2022-08-09T23:59:21.379Z,79.52
